sensor_id;sensor_type;location;lat;lon;timestamp;pressure;altitude;pressure_sealevel;temperature;humidity
57574;BME280;63722;48.858;21.906;2023-02-20T00:01:37;99010.03;;;20.25;36.50
57574;BME280;63722;48.858;21.906;2023-02-20T00:04:02;99012.00;;;20.30;36.43
57574;BME280;63722;48.858;21.906;2023-02-20T00:06:28;99009.88;;;20.32;36.21
57574;BME280;63722;48.858;21.906;2023-02-20T00:08:53;99010.13;;;20.30;36.58
57574;BME280;63722;48.858;21.906;2023-02-20T00:11:19;99007.94;;;20.27;36.37
57574;BME280;63722;48.858;21.906;2023-02-20T00:13:45;99007.22;;;20.32;36.35
57574;BME280;63722;48.858;21.906;2023-02-20T00:16:11;99006.06;;;20.28;36.63
57574;BME280;63722;48.858;21.906;2023-02-20T00:18:36;99004.78;;;20.30;36.42
57574;BME280;63722;48.858;21.906;2023-02-20T00:21:02;99004.09;;;20.23;36.41
57574;BME280;63722;48.858;21.906;2023-02-20T00:23:31;99011.38;;;20.28;36.50
57574;BME280;63722;48.858;21.906;2023-02-20T00:25:57;99004.00;;;20.30;36.48
57574;BME280;63722;48.858;21.906;2023-02-20T00:28:22;99010.03;;;20.25;36.51
57574;BME280;63722;48.858;21.906;2023-02-20T00:30:47;98999.94;;;20.27;36.49
57574;BME280;63722;48.858;21.906;2023-02-20T00:33:13;98996.25;;;20.28;36.37
57574;BME280;63722;48.858;21.906;2023-02-20T00:35:38;98998.31;;;20.26;36.45
57574;BME280;63722;48.858;21.906;2023-02-20T00:38:03;98998.66;;;20.30;36.56
57574;BME280;63722;48.858;21.906;2023-02-20T00:40:29;98992.50;;;20.29;36.50
57574;BME280;63722;48.858;21.906;2023-02-20T00:42:54;98994.47;;;20.34;36.41
57574;BME280;63722;48.858;21.906;2023-02-20T00:45:20;99001.91;;;20.32;36.42
57574;BME280;63722;48.858;21.906;2023-02-20T00:47:45;99007.22;;;20.32;36.36
57574;BME280;63722;48.858;21.906;2023-02-20T00:50:12;99005.38;;;20.32;36.31
57574;BME280;63722;48.858;21.906;2023-02-20T00:52:38;99005.50;;;20.37;36.30
57574;BME280;63722;48.858;21.906;2023-02-20T00:55:04;99008.03;;;20.32;36.33
57574;BME280;63722;48.858;21.906;2023-02-20T00:57:30;99006.28;;;20.38;36.29
57574;BME280;63722;48.858;21.906;2023-02-20T00:59:56;99012.78;;;20.42;36.33
57574;BME280;63722;48.858;21.906;2023-02-20T01:02:21;99005.13;;;20.34;36.16
57574;BME280;63722;48.858;21.906;2023-02-20T01:04:47;99014.97;;;20.33;36.50
57574;BME280;63722;48.858;21.906;2023-02-20T01:07:13;99005.50;;;20.26;36.37
57574;BME280;63722;48.858;21.906;2023-02-20T01:09:38;99018.81;;;20.37;36.39
57574;BME280;63722;48.858;21.906;2023-02-20T01:12:04;99012.09;;;20.35;36.53
57574;BME280;63722;48.858;21.906;2023-02-20T01:14:29;99006.75;;;20.35;36.43
57574;BME280;63722;48.858;21.906;2023-02-20T01:16:55;99005.38;;;20.32;36.37
57574;BME280;63722;48.858;21.906;2023-02-20T01:19:22;99019.38;;;20.39;36.22
57574;BME280;63722;48.858;21.906;2023-02-20T01:21:48;99012.88;;;20.35;36.33
57574;BME280;63722;48.858;21.906;2023-02-20T01:24:15;99010.13;;;20.42;36.34
57574;BME280;63722;48.858;21.906;2023-02-20T01:26:44;99010.44;;;20.34;36.34
57574;BME280;63722;48.858;21.906;2023-02-20T01:29:10;99013.47;;;20.37;36.33
57574;BME280;63722;48.858;21.906;2023-02-20T01:31:36;99011.06;;;20.36;36.17
57574;BME280;63722;48.858;21.906;2023-02-20T01:34:02;99004.00;;;20.30;36.33
57574;BME280;63722;48.858;21.906;2023-02-20T01:36:27;98999.69;;;20.41;36.31
57574;BME280;63722;48.858;21.906;2023-02-20T01:38:52;99003.84;;;20.36;36.38
57574;BME280;63722;48.858;21.906;2023-02-20T01:41:18;99006.19;;;20.33;36.30
57574;BME280;63722;48.858;21.906;2023-02-20T01:43:44;99009.19;;;20.36;36.52
57574;BME280;63722;48.858;21.906;2023-02-20T01:49:08;98999.81;;;20.34;36.40
57574;BME280;63722;48.858;21.906;2023-02-20T01:51:38;99003.53;;;20.33;36.28
57574;BME280;63722;48.858;21.906;2023-02-20T01:54:08;99003.63;;;20.38;36.23
57574;BME280;63722;48.858;21.906;2023-02-20T01:56:34;99010.00;;;20.37;36.44
57574;BME280;63722;48.858;21.906;2023-02-20T01:59:00;99005.97;;;20.34;36.31
57574;BME280;63722;48.858;21.906;2023-02-20T02:01:26;99014.28;;;20.38;36.28
57574;BME280;63722;48.858;21.906;2023-02-20T02:03:59;99005.38;;;20.32;36.71
57574;BME280;63722;48.858;21.906;2023-02-20T02:06:25;99007.22;;;20.32;36.51
57574;BME280;63722;48.858;21.906;2023-02-20T02:08:54;99006.75;;;20.35;36.25
57574;BME280;63722;48.858;21.906;2023-02-20T02:11:22;98999.00;;;20.33;36.32
57574;BME280;63722;48.858;21.906;2023-02-20T02:13:48;99006.28;;;20.38;36.44
57574;BME280;63722;48.858;21.906;2023-02-20T02:41:31;98998.75;;;20.35;36.36
57574;BME280;63722;48.858;21.906;2023-02-20T02:44:17;99004.66;;;20.37;36.43
57574;BME280;63722;48.858;21.906;2023-02-20T02:47:02;99000.50;;;20.41;36.35
57574;BME280;63722;48.858;21.906;2023-02-20T02:52:10;98993.78;;;20.38;36.36
57574;BME280;63722;48.858;21.906;2023-02-20T02:54:36;98995.16;;;20.41;36.22
57574;BME280;63722;48.858;21.906;2023-02-20T02:57:24;98995.97;;;20.42;36.46
57574;BME280;63722;48.858;21.906;2023-02-20T03:05:19;99016.16;;;20.37;36.48
57574;BME280;63722;48.858;21.906;2023-02-20T03:07:50;99011.06;;;20.36;36.30
57574;BME280;63722;48.858;21.906;2023-02-20T03:10:19;99018.56;;;20.39;36.25
57574;BME280;63722;48.858;21.906;2023-02-20T03:13:00;99011.63;;;20.38;36.39
57574;BME280;63722;48.858;21.906;2023-02-20T03:15:40;99007.91;;;20.39;36.25
57574;BME280;63722;48.858;21.906;2023-02-20T03:18:24;99006.63;;;20.42;36.31
57574;BME280;63722;48.858;21.906;2023-02-20T03:21:06;98997.25;;;20.39;36.49
57574;BME280;63722;48.858;21.906;2023-02-20T03:23:38;99003.06;;;20.36;36.25
57574;BME280;63722;48.858;21.906;2023-02-20T03:26:12;99001.44;;;20.35;36.10
57574;BME280;63722;48.858;21.906;2023-02-20T03:28:46;99008.81;;;20.45;36.18
57574;BME280;63722;48.858;21.906;2023-02-20T03:31:19;99017.63;;;20.45;36.13
57574;BME280;63722;48.858;21.906;2023-02-20T03:33:56;99015.91;;;20.39;36.18
57574;BME280;63722;48.858;21.906;2023-02-20T03:36:48;99010.69;;;20.44;36.02
57574;BME280;63722;48.858;21.906;2023-02-20T03:39:39;98997.25;;;20.39;36.22
57574;BME280;63722;48.858;21.906;2023-02-20T03:42:26;98995.97;;;20.42;36.17
57574;BME280;63722;48.858;21.906;2023-02-20T03:45:13;98989.75;;;20.36;36.23
57574;BME280;63722;48.858;21.906;2023-02-20T03:47:44;98985.44;;;20.35;36.10
57574;BME280;63722;48.858;21.906;2023-02-20T03:50:13;98978.84;;;20.37;36.45
57574;BME280;63722;48.858;21.906;2023-02-20T03:52:57;98984.50;;;20.41;36.24
57574;BME280;63722;48.858;21.906;2023-02-20T03:55:23;98992.16;;;20.37;36.33
57574;BME280;63722;48.858;21.906;2023-02-20T03:57:51;99000.97;;;20.38;36.09
57574;BME280;63722;48.858;21.906;2023-02-20T04:00:21;98991.47;;;20.42;36.14
57574;BME280;63722;48.858;21.906;2023-02-20T04:02:50;98988.22;;;20.40;36.39
57574;BME280;63722;48.858;21.906;2023-02-20T04:05:26;98997.25;;;20.39;36.25
57574;BME280;63722;48.858;21.906;2023-02-20T04:07:57;98994.13;;;20.42;36.18
57574;BME280;63722;48.858;21.906;2023-02-20T04:10:27;98984.97;;;20.38;35.99
57574;BME280;63722;48.858;21.906;2023-02-20T04:12:56;98999.69;;;20.41;36.22
57574;BME280;63722;48.858;21.906;2023-02-20T04:15:23;98995.25;;;20.46;36.08
57574;BME280;63722;48.858;21.906;2023-02-20T04:17:52;98992.03;;;20.44;36.18
57574;BME280;63722;48.858;21.906;2023-02-20T04:20:19;98991.81;;;20.46;36.07
57574;BME280;63722;48.858;21.906;2023-02-20T04:22:47;98989.38;;;20.44;36.22
57574;BME280;63722;48.858;21.906;2023-02-20T04:25:20;98994.69;;;20.44;36.16
57574;BME280;63722;48.858;21.906;2023-02-20T04:27:49;98994.13;;;20.42;36.16
57574;BME280;63722;48.858;21.906;2023-02-20T04:30:14;98991.00;;;20.45;36.10
57574;BME280;63722;48.858;21.906;2023-02-20T04:32:40;98986.13;;;20.42;36.29
57574;BME280;63722;48.858;21.906;2023-02-20T04:35:06;98992.03;;;20.44;36.03
57574;BME280;63722;48.858;21.906;2023-02-20T04:37:31;98996.78;;;20.42;36.33
57574;BME280;63722;48.858;21.906;2023-02-20T04:39:57;99018.91;;;20.43;36.03
57574;BME280;63722;48.858;21.906;2023-02-20T04:42:22;99013.09;;;20.46;36.06
57574;BME280;63722;48.858;21.906;2023-02-20T04:44:47;99015.22;;;20.44;36.14
57574;BME280;63722;48.858;21.906;2023-02-20T04:47:16;99011.38;;;20.39;36.11
57574;BME280;63722;48.858;21.906;2023-02-20T04:49:42;99002.59;;;20.39;36.17
57574;BME280;63722;48.858;21.906;2023-02-20T04:52:07;99013.47;;;20.37;36.25
57574;BME280;63722;48.858;21.906;2023-02-20T04:54:32;99018.66;;;20.44;36.32
57574;BME280;63722;48.858;21.906;2023-02-20T04:56:58;99013.81;;;20.41;36.30
57574;BME280;63722;48.858;21.906;2023-02-20T04:59:24;99014.84;;;20.40;36.28
57574;BME280;63722;48.858;21.906;2023-02-20T05:01:50;99010.59;;;20.39;36.01
57574;BME280;63722;48.858;21.906;2023-02-20T05:04:18;99014.28;;;20.38;36.26
57574;BME280;63722;48.858;21.906;2023-02-20T05:06:47;99008.38;;;20.36;36.30
57574;BME280;63722;48.858;21.906;2023-02-20T05:09:13;99009.88;;;20.32;36.25
57574;BME280;63722;48.858;21.906;2023-02-20T05:11:39;99012.66;;;20.37;36.37
57574;BME280;63722;48.858;21.906;2023-02-20T05:14:04;99021.47;;;20.37;36.38
57574;BME280;63722;48.858;21.906;2023-02-20T05:16:30;99020.19;;;20.40;36.03
57574;BME280;63722;48.858;21.906;2023-02-20T05:18:55;99025.50;;;20.40;36.25
57574;BME280;63722;48.858;21.906;2023-02-20T05:21:21;99022.13;;;20.45;36.06
57574;BME280;63722;48.858;21.906;2023-02-20T05:24:05;99014.16;;;20.45;36.20
57574;BME280;63722;48.858;21.906;2023-02-20T05:26:31;99009.88;;;20.44;36.03
57574;BME280;63722;48.858;21.906;2023-02-20T05:28:56;99004.31;;;20.45;36.06
57574;BME280;63722;48.858;21.906;2023-02-20T05:31:22;99000.13;;;20.49;36.00
57574;BME280;63722;48.858;21.906;2023-02-20T05:33:47;99008.94;;;20.50;36.14
57574;BME280;63722;48.858;21.906;2023-02-20T05:36:12;99009.84;;;20.55;36.02
57574;BME280;63722;48.858;21.906;2023-02-20T05:38:38;99009.13;;;20.60;35.99
57574;BME280;63722;48.858;21.906;2023-02-20T05:41:05;99006.47;;;20.60;35.63
57574;BME280;63722;48.858;21.906;2023-02-20T05:43:31;99017.59;;;20.69;35.77
57574;BME280;63722;48.858;21.906;2023-02-20T05:45:56;99015.84;;;20.63;36.08
57574;BME280;63722;48.858;21.906;2023-02-20T05:48:21;99015.28;;;20.72;35.76
57574;BME280;63722;48.858;21.906;2023-02-20T05:50:47;99010.09;;;20.66;35.89
57574;BME280;63722;48.858;21.906;2023-02-20T05:53:15;99022.00;;;20.75;35.60
57574;BME280;63722;48.858;21.906;2023-02-20T05:55:40;99034.84;;;20.78;35.83
57574;BME280;63722;48.858;21.906;2023-02-20T05:58:05;99041.66;;;20.86;35.64
57574;BME280;63722;48.858;21.906;2023-02-20T06:00:31;99028.81;;;20.83;35.66
57574;BME280;63722;48.858;21.906;2023-02-20T06:02:56;99033.19;;;20.89;35.52
57574;BME280;63722;48.858;21.906;2023-02-20T06:05:21;99035.16;;;20.93;35.51
57574;BME280;63722;48.858;21.906;2023-02-20T06:07:48;99028.19;;;20.92;35.52
57574;BME280;63722;48.858;21.906;2023-02-20T06:10:15;99019.38;;;20.92;35.57
57574;BME280;63722;48.858;21.906;2023-02-20T06:12:42;99028.53;;;20.96;35.44
57574;BME280;63722;48.858;21.906;2023-02-20T06:15:07;99020.66;;;20.89;35.27
57574;BME280;63722;48.858;21.906;2023-02-20T06:17:33;99025.66;;;20.86;35.63
57574;BME280;63722;48.858;21.906;2023-02-20T06:19:58;99028.31;;;20.98;35.37
57574;BME280;63722;48.858;21.906;2023-02-20T06:22:24;99028.94;;;21.05;35.20
57574;BME280;63722;48.858;21.906;2023-02-20T06:24:49;99024.34;;;21.00;35.27
57574;BME280;63722;48.858;21.906;2023-02-20T06:27:16;99039.63;;;21.05;35.55
57574;BME280;63722;48.858;21.906;2023-02-20T06:29:42;99033.47;;;21.04;35.28
57574;BME280;63722;48.858;21.906;2023-02-20T06:32:07;99032.81;;;20.97;35.58
57574;BME280;63722;48.858;21.906;2023-02-20T06:34:33;99048.28;;;21.12;34.85
57574;BME280;63722;48.858;21.906;2023-02-20T06:37:00;99048.91;;;21.02;35.33
57574;BME280;63722;48.858;21.906;2023-02-20T06:39:29;99045.19;;;21.03;35.33
57574;BME280;63722;48.858;21.906;2023-02-20T06:41:55;99048.72;;;20.80;35.57
57574;BME280;63722;48.858;21.906;2023-02-20T06:44:21;99052.81;;;20.71;35.70
57574;BME280;63722;48.858;21.906;2023-02-20T06:46:47;99056.63;;;20.63;34.78
57574;BME280;63722;48.858;21.906;2023-02-20T06:49:13;99051.91;;;20.53;35.03
57574;BME280;63722;48.858;21.906;2023-02-20T06:51:39;99049.22;;;20.53;34.43
57574;BME280;63722;48.858;21.906;2023-02-20T06:54:05;99051.53;;;20.62;32.84
57574;BME280;63722;48.858;21.906;2023-02-20T06:56:33;99064.84;;;20.62;34.04
57574;BME280;63722;48.858;21.906;2023-02-20T06:59:00;99060.00;;;20.58;33.59
57574;BME280;63722;48.858;21.906;2023-02-20T07:01:29;99061.63;;;20.60;34.02
57574;BME280;63722;48.858;21.906;2023-02-20T07:03:56;99065.66;;;20.74;33.79
57574;BME280;63722;48.858;21.906;2023-02-20T07:06:23;99063.91;;;20.91;34.13
57574;BME280;63722;48.858;21.906;2023-02-20T07:08:49;99059.38;;;20.92;34.43
57574;BME280;63722;48.858;21.906;2023-02-20T07:11:20;99065.00;;;21.07;34.63
57574;BME280;63722;48.858;21.906;2023-02-20T07:13:45;99072.22;;;21.07;34.69
57574;BME280;63722;48.858;21.906;2023-02-20T07:16:11;99063.34;;;21.18;34.94
57574;BME280;63722;48.858;21.906;2023-02-20T07:18:37;99054.19;;;21.14;35.21
57574;BME280;63722;48.858;21.906;2023-02-20T07:21:02;99052.00;;;21.11;35.27
57574;BME280;63722;48.858;21.906;2023-02-20T07:23:28;99044.75;;;21.23;35.45
57574;BME280;63722;48.858;21.906;2023-02-20T07:25:53;99048.81;;;21.26;35.16
57574;BME280;63722;48.858;21.906;2023-02-20T07:28:19;99055.94;;;21.37;35.29
57574;BME280;63722;48.858;21.906;2023-02-20T07:30:48;99057.72;;;21.49;35.66
57574;BME280;63722;48.858;21.906;2023-02-20T07:33:14;99054.50;;;21.46;35.73
57574;BME280;63722;48.858;21.906;2023-02-20T07:35:40;99049.97;;;21.47;35.66
57574;BME280;63722;48.858;21.906;2023-02-20T07:38:05;99042.09;;;21.52;36.07
57574;BME280;63722;48.858;21.906;2023-02-20T07:40:31;99042.09;;;21.52;36.36
57574;BME280;63722;48.858;21.906;2023-02-20T07:42:56;99042.19;;;21.45;36.68
57574;BME280;63722;48.858;21.906;2023-02-20T07:45:21;99039.66;;;21.51;36.69
57574;BME280;63722;48.858;21.906;2023-02-20T07:47:47;99036.59;;;21.59;36.63
